sensor_id;sensor_type;location;lat;lon;timestamp;pressure;altitude;pressure_sealevel;temperature;humidity
14295;BME280;7231;59.370;18.016;2023-02-28T00:01:29;102425.81;;;2.09;82.10
14295;BME280;7231;59.370;18.016;2023-02-28T00:03:58;102379.56;;;1.83;82.15
14295;BME280;7231;59.370;18.016;2023-02-28T00:06:28;102394.47;;;1.96;82.07
14295;BME280;7231;59.370;18.016;2023-02-28T00:08:56;102409.88;;;1.94;82.01
14295;BME280;7231;59.370;18.016;2023-02-28T00:11:24;102429.81;;;2.06;82.16
14295;BME280;7231;59.370;18.016;2023-02-28T00:13:52;102436.81;;;2.07;81.97
14295;BME280;7231;59.370;18.016;2023-02-28T00:16:21;102380.59;;;1.75;82.39
14295;BME280;7231;59.370;18.016;2023-02-28T00:18:50;102441.09;;;2.06;82.11
14295;BME280;7231;59.370;18.016;2023-02-28T00:21:19;102436.81;;;2.07;82.62
14295;BME280;7231;59.370;18.016;2023-02-28T00:23:48;102441.09;;;2.06;81.97
14295;BME280;7231;59.370;18.016;2023-02-28T00:26:17;102423.44;;;1.92;82.32
14295;BME280;7231;59.370;18.016;2023-02-28T00:28:47;102448.03;;;1.97;82.67
14295;BME280;7231;59.370;18.016;2023-02-28T00:31:15;102423.41;;;1.82;82.39
14295;BME280;7231;59.370;18.016;2023-02-28T00:33:43;102444.91;;;1.91;82.56
14295;BME280;7231;59.370;18.016;2023-02-28T00:36:11;102439.47;;;1.88;82.42
14295;BME280;7231;59.370;18.016;2023-02-28T00:38:40;102404.59;;;1.64;82.83
14295;BME280;7231;59.370;18.016;2023-02-28T00:41:10;102434.66;;;1.82;82.51
14295;BME280;7231;59.370;18.016;2023-02-28T00:43:38;102384.72;;;1.44;82.60
14295;BME280;7231;59.370;18.016;2023-02-28T00:46:07;102442.91;;;1.78;82.67
14295;BME280;7231;59.370;18.016;2023-02-28T00:48:35;102423.59;;;1.65;83.03
14295;BME280;7231;59.370;18.016;2023-02-28T00:51:04;102435.66;;;1.74;83.22
14295;BME280;7231;59.370;18.016;2023-02-28T00:53:32;102421.66;;;1.62;82.83
14295;BME280;7231;59.370;18.016;2023-02-28T00:56:00;102439.28;;;1.76;82.94
14295;BME280;7231;59.370;18.016;2023-02-28T00:58:30;102433.47;;;1.79;82.91
14295;BME280;7231;59.370;18.016;2023-02-28T01:00:58;102430.13;;;1.80;83.44
14295;BME280;7231;59.370;18.016;2023-02-28T01:03:26;102397.75;;;1.65;83.58
14295;BME280;7231;59.370;18.016;2023-02-28T01:05:53;102382.19;;;1.54;83.42
14295;BME280;7231;59.370;18.016;2023-02-28T01:08:21;102400.88;;;1.71;82.89
14295;BME280;7231;59.370;18.016;2023-02-28T01:10:49;102408.75;;;1.72;83.43
14295;BME280;7231;59.370;18.016;2023-02-28T01:13:18;102418.09;;;1.80;82.99
14295;BME280;7231;59.370;18.016;2023-02-28T01:15:50;102409.91;;;1.66;83.28
14295;BME280;7231;59.370;18.016;2023-02-28T01:18:19;102400.06;;;1.61;83.23
14295;BME280;7231;59.370;18.016;2023-02-28T01:20:47;102439.44;;;1.78;82.95
14295;BME280;7231;59.370;18.016;2023-02-28T01:23:15;102429.09;;;1.78;83.19
14295;BME280;7231;59.370;18.016;2023-02-28T01:25:44;102426.50;;;1.78;83.53
14295;BME280;7231;59.370;18.016;2023-02-28T01:28:12;102394.34;;;1.55;83.44
14295;BME280;7231;59.370;18.016;2023-02-28T01:30:40;102421.06;;;1.75;83.04
14295;BME280;7231;59.370;18.016;2023-02-28T01:33:09;102429.59;;;1.74;83.33
14295;BME280;7231;59.370;18.016;2023-02-28T01:35:37;102427.78;;;1.73;83.04
14295;BME280;7231;59.370;18.016;2023-02-28T01:38:05;102428.53;;;1.72;83.61
14295;BME280;7231;59.370;18.016;2023-02-28T01:40:48;102372.53;;;1.33;83.34
14295;BME280;7231;59.370;18.016;2023-02-28T01:43:22;102440.16;;;1.67;83.58
14295;BME280;7231;59.370;18.016;2023-02-28T01:45:51;102433.94;;;1.65;83.38
14295;BME280;7231;59.370;18.016;2023-02-28T01:48:22;102446.72;;;1.63;83.59
14295;BME280;7231;59.370;18.016;2023-02-28T01:50:51;102427.94;;;1.55;83.38
14295;BME280;7231;59.370;18.016;2023-02-28T01:53:23;102445.41;;;1.58;83.47
14295;BME280;7231;59.370;18.016;2023-02-28T01:55:54;102439.97;;;1.55;83.78
14295;BME280;7231;59.370;18.016;2023-02-28T01:58:22;102425.19;;;1.44;84.01
14295;BME280;7231;59.370;18.016;2023-02-28T02:00:51;102430.53;;;1.55;84.17
14295;BME280;7231;59.370;18.016;2023-02-28T02:03:20;102430.13;;;1.51;84.34
14295;BME280;7231;59.370;18.016;2023-02-28T02:05:49;102429.22;;;1.50;84.69
14295;BME280;7231;59.370;18.016;2023-02-28T02:08:19;102430.13;;;1.51;84.88
14295;BME280;7231;59.370;18.016;2023-02-28T02:10:49;102445.00;;;1.53;84.33
14295;BME280;7231;59.370;18.016;2023-02-28T02:13:37;102426.78;;;1.52;83.88
14295;BME280;7231;59.370;18.016;2023-02-28T02:16:18;102402.69;;;1.43;84.39
14295;BME280;7231;59.370;18.016;2023-02-28T02:18:53;102212.34;;;0.27;84.55
14295;BME280;7231;59.370;18.016;2023-02-28T02:21:43;102433.34;;;1.48;84.35
14295;BME280;7231;59.370;18.016;2023-02-28T02:24:41;102428.81;;;1.46;84.30
14295;BME280;7231;59.370;18.016;2023-02-28T02:27:26;102234.44;;;0.34;84.52
14295;BME280;7231;59.370;18.016;2023-02-28T02:30:19;102431.75;;;1.40;84.39
14295;BME280;7231;59.370;18.016;2023-02-28T02:33:10;102429.50;;;1.35;84.49
14295;BME280;7231;59.370;18.016;2023-02-28T02:35:49;102376.75;;;1.04;84.49
14295;BME280;7231;59.370;18.016;2023-02-28T02:38:27;102430.00;;;1.30;84.67
14295;BME280;7231;59.370;18.016;2023-02-28T02:41:06;102340.53;;;0.75;85.05
14295;BME280;7231;59.370;18.016;2023-02-28T02:43:38;102425.97;;;1.24;85.07
14295;BME280;7231;59.370;18.016;2023-02-28T02:46:14;102410.41;;;1.14;84.88
14295;BME280;7231;59.370;18.016;2023-02-28T02:48:45;102433.16;;;1.18;84.63
14295;BME280;7231;59.370;18.016;2023-02-28T02:51:17;102426.66;;;1.13;85.00
14295;BME280;7231;59.370;18.016;2023-02-28T02:53:50;102416.53;;;1.06;85.76
14295;BME280;7231;59.370;18.016;2023-02-28T02:56:24;102386.53;;;0.79;85.12
14295;BME280;7231;59.370;18.016;2023-02-28T02:58:55;102435.13;;;1.02;85.55
14295;BME280;7231;59.370;18.016;2023-02-28T03:01:27;102433.00;;;0.97;85.13
14295;BME280;7231;59.370;18.016;2023-02-28T03:04:00;102342.13;;;0.45;85.52
14295;BME280;7231;59.370;18.016;2023-02-28T03:06:32;102428.34;;;0.93;85.84
14295;BME280;7231;59.370;18.016;2023-02-28T03:09:00;102408.22;;;0.81;86.23
14295;BME280;7231;59.370;18.016;2023-02-28T03:11:29;102423.59;;;0.98;86.38
14295;BME280;7231;59.370;18.016;2023-02-28T03:14:15;102417.66;;;0.99;86.65
14295;BME280;7231;59.370;18.016;2023-02-28T03:17:03;102405.44;;;0.88;85.92
14295;BME280;7231;59.370;18.016;2023-02-28T03:19:47;102421.00;;;0.98;86.72
14295;BME280;7231;59.370;18.016;2023-02-28T03:22:41;102338.44;;;0.52;86.29
14295;BME280;7231;59.370;18.016;2023-02-28T03:25:17;102424.50;;;0.98;86.34
14295;BME280;7231;59.370;18.016;2023-02-28T03:27:55;102319.72;;;0.36;86.32
14295;BME280;7231;59.370;18.016;2023-02-28T03:30:31;102433.16;;;0.99;86.90
14295;BME280;7231;59.370;18.016;2023-02-28T03:33:05;102423.72;;;1.00;86.36
14295;BME280;7231;59.370;18.016;2023-02-28T03:35:36;102396.38;;;0.83;86.55
14295;BME280;7231;59.370;18.016;2023-02-28T03:38:11;102420.88;;;0.96;86.30
14295;BME280;7231;59.370;18.016;2023-02-28T03:40:45;102417.72;;;0.90;86.21
14295;BME280;7231;59.370;18.016;2023-02-28T03:43:19;102415.16;;;0.90;86.42
14295;BME280;7231;59.370;18.016;2023-02-28T03:45:50;102420.03;;;0.87;86.85
14295;BME280;7231;59.370;18.016;2023-02-28T03:48:23;102434.13;;;0.91;86.39
14295;BME280;7231;59.370;18.016;2023-02-28T03:50:55;102430.34;;;0.87;87.14
14295;BME280;7231;59.370;18.016;2023-02-28T03:53:29;102413.59;;;0.74;86.84
14295;BME280;7231;59.370;18.016;2023-02-28T03:56:01;102410.09;;;0.73;87.62
14295;BME280;7231;59.370;18.016;2023-02-28T03:58:35;102434.06;;;0.81;87.55
14295;BME280;7231;59.370;18.016;2023-02-28T04:01:08;102416.59;;;0.78;87.83
14295;BME280;7231;59.370;18.016;2023-02-28T04:03:38;102416.59;;;0.78;87.00
14295;BME280;7231;59.370;18.016;2023-02-28T04:06:08;102412.97;;;0.76;87.56
14295;BME280;7231;59.370;18.016;2023-02-28T04:08:42;102309.38;;;0.17;87.00
14295;BME280;7231;59.370;18.016;2023-02-28T04:11:18;102410.38;;;0.76;87.78
14295;BME280;7231;59.370;18.016;2023-02-28T04:13:47;102407.53;;;0.73;87.71
14295;BME280;7231;59.370;18.016;2023-02-28T04:16:16;102387.56;;;0.62;87.14
14295;BME280;7231;59.370;18.016;2023-02-28T04:19:00;102394.88;;;0.57;87.72
14295;BME280;7231;59.370;18.016;2023-02-28T04:21:30;102373.66;;;0.51;87.89
14295;BME280;7231;59.370;18.016;2023-02-28T04:24:00;102245.50;;;-0.23;87.46
14295;BME280;7231;59.370;18.016;2023-02-28T04:26:29;102410.44;;;0.68;87.53
14295;BME280;7231;59.370;18.016;2023-02-28T04:28:57;102416.25;;;0.65;87.89
14295;BME280;7231;59.370;18.016;2023-02-28T04:31:25;102359.34;;;0.36;87.41
14295;BME280;7231;59.370;18.016;2023-02-28T04:33:54;102411.06;;;0.65;87.91
14295;BME280;7231;59.370;18.016;2023-02-28T04:36:23;102339.53;;;0.26;88.02
14295;BME280;7231;59.370;18.016;2023-02-28T04:38:51;102404.56;;;0.60;88.66
14295;BME280;7231;59.370;18.016;2023-02-28T04:41:22;102402.91;;;0.60;88.58
14295;BME280;7231;59.370;18.016;2023-02-28T04:43:50;102329.59;;;0.12;88.04
14295;BME280;7231;59.370;18.016;2023-02-28T04:46:19;102404.16;;;0.55;87.93
14295;BME280;7231;59.370;18.016;2023-02-28T04:48:47;102394.94;;;0.49;88.34
14295;BME280;7231;59.370;18.016;2023-02-28T04:51:17;102399.94;;;0.47;88.77
14295;BME280;7231;59.370;18.016;2023-02-28T04:53:46;102420.25;;;0.53;88.93
14295;BME280;7231;59.370;18.016;2023-02-28T04:56:16;102402.09;;;0.43;88.95
14295;BME280;7231;59.370;18.016;2023-02-28T04:58:47;102371.84;;;0.23;88.66
14295;BME280;7231;59.370;18.016;2023-02-28T05:01:18;102421.78;;;0.51;88.38
14295;BME280;7231;59.370;18.016;2023-02-28T05:03:47;102402.63;;;0.30;88.89
14295;BME280;7231;59.370;18.016;2023-02-28T05:06:15;102401.72;;;0.29;88.79
14295;BME280;7231;59.370;18.016;2023-02-28T05:08:44;102410.94;;;0.36;88.53
14295;BME280;7231;59.370;18.016;2023-02-28T05:11:15;102421.84;;;0.42;88.65
14295;BME280;7231;59.370;18.016;2023-02-28T05:13:44;102405.81;;;0.27;88.56
14295;BME280;7231;59.370;18.016;2023-02-28T05:16:15;102436.28;;;0.40;89.47
14295;BME280;7231;59.370;18.016;2023-02-28T05:18:43;102435.38;;;0.40;89.15
14295;BME280;7231;59.370;18.016;2023-02-28T05:21:26;102437.78;;;0.38;89.64
14295;BME280;7231;59.370;18.016;2023-02-28T05:23:55;102448.13;;;0.38;89.20
14295;BME280;7231;59.370;18.016;2023-02-28T05:26:24;102429.81;;;0.26;89.27
14295;BME280;7231;59.370;18.016;2023-02-28T05:28:52;102446.00;;;0.34;89.31
14295;BME280;7231;59.370;18.016;2023-02-28T05:31:22;102435.53;;;0.32;89.08
14295;BME280;7231;59.370;18.016;2023-02-28T05:33:51;102441.31;;;0.30;89.48
14295;BME280;7231;59.370;18.016;2023-02-28T05:36:19;102442.22;;;0.30;89.66
14295;BME280;7231;59.370;18.016;2023-02-28T05:38:48;102429.53;;;0.23;89.21
14295;BME280;7231;59.370;18.016;2023-02-28T05:41:16;102428.28;;;0.28;89.43
14295;BME280;7231;59.370;18.016;2023-02-28T05:43:46;102442.22;;;0.30;89.45
14295;BME280;7231;59.370;18.016;2023-02-28T05:46:15;102419.97;;;0.22;89.54
14295;BME280;7231;59.370;18.016;2023-02-28T05:48:46;102444.34;;;0.35;89.99
14295;BME280;7231;59.370;18.016;2023-02-28T05:51:15;102440.09;;;0.35;89.50
14295;BME280;7231;59.370;18.016;2023-02-28T05:53:43;102425.09;;;0.31;89.55
14295;BME280;7231;59.370;18.016;2023-02-28T05:56:11;102438.09;;;0.41;89.30
14295;BME280;7231;59.370;18.016;2023-02-28T05:58:39;102424.94;;;0.29;89.63
14295;BME280;7231;59.370;18.016;2023-02-28T06:01:21;102449.75;;;0.46;89.41
14295;BME280;7231;59.370;18.016;2023-02-28T06:03:51;102446.53;;;0.49;89.77
14295;BME280;7231;59.370;18.016;2023-02-28T06:06:19;102454.56;;;0.52;89.60
14295;BME280;7231;59.370;18.016;2023-02-28T06:08:47;102440.47;;;0.48;90.04
14295;BME280;7231;59.370;18.016;2023-02-28T06:11:15;102443.19;;;0.50;89.79
14295;BME280;7231;59.370;18.016;2023-02-28T06:13:44;102453.03;;;0.54;89.99
14295;BME280;7231;59.370;18.016;2023-02-28T06:16:12;102385.56;;;0.13;89.49
14295;BME280;7231;59.370;18.016;2023-02-28T06:18:39;102468.53;;;0.54;90.33
14295;BME280;7231;59.370;18.016;2023-02-28T06:21:09;102437.94;;;0.40;89.82
14295;BME280;7231;59.370;18.016;2023-02-28T06:23:37;102464.28;;;0.54;89.73
14295;BME280;7231;59.370;18.016;2023-02-28T06:26:05;102465.19;;;0.55;89.83
14295;BME280;7231;59.370;18.016;2023-02-28T06:28:33;102463.66;;;0.57;90.23
14295;BME280;7231;59.370;18.016;2023-02-28T06:31:06;102447.03;;;0.45;89.72
14295;BME280;7231;59.370;18.016;2023-02-28T06:33:35;102475.47;;;0.63;89.99
14295;BME280;7231;59.370;18.016;2023-02-28T06:36:04;102435.16;;;0.47;90.45
14295;BME280;7231;59.370;18.016;2023-02-28T06:38:33;102466.56;;;0.79;90.01
14295;BME280;7231;59.370;18.016;2023-02-28T06:41:02;102453.78;;;0.80;90.00
14295;BME280;7231;59.370;18.016;2023-02-28T06:43:33;102462.81;;;0.94;89.56
14295;BME280;7231;59.370;18.016;2023-02-28T06:46:03;102469.47;;;1.01;90.14
14295;BME280;7231;59.370;18.016;2023-02-28T06:48:32;102454.72;;;1.00;90.13
14295;BME280;7231;59.370;18.016;2023-02-28T06:51:03;102475.69;;;1.21;89.84
14295;BME280;7231;59.370;18.016;2023-02-28T06:53:33;102474.84;;;1.31;89.13
14295;BME280;7231;59.370;18.016;2023-02-28T06:56:04;102442.50;;;1.26;88.88
14295;BME280;7231;59.370;18.016;2023-02-28T06:58:33;102471.47;;;1.51;89.16
14295;BME280;7231;59.370;18.016;2023-02-28T07:01:01;102464.56;;;1.60;89.02
14295;BME280;7231;59.370;18.016;2023-02-28T07:03:30;102453.44;;;1.61;89.36
14295;BME280;7231;59.370;18.016;2023-02-28T07:06:00;102464.28;;;1.86;90.27
14295;BME280;7231;59.370;18.016;2023-02-28T07:08:28;102435.56;;;1.83;90.95
14295;BME280;7231;59.370;18.016;2023-02-28T07:10:58;102452.09;;;2.14;91.65
14295;BME280;7231;59.370;18.016;2023-02-28T07:13:28;102425.97;;;2.21;91.78
14295;BME280;7231;59.370;18.016;2023-02-28T07:15:56;102467.22;;;2.58;91.68
14295;BME280;7231;59.370;18.016;2023-02-28T07:18:25;102467.06;;;2.67;91.46
14295;BME280;7231;59.370;18.016;2023-02-28T07:20:54;102445.59;;;2.58;90.88
14295;BME280;7231;59.370;18.016;2023-02-28T07:23:22;102465.50;;;2.79;90.49
14295;BME280;7231;59.370;18.016;2023-02-28T07:25:50;102473.53;;;2.92;90.78
14295;BME280;7231;59.370;18.016;2023-02-28T07:28:20;102465.00;;;3.04;90.28
14295;BME280;7231;59.370;18.016;2023-02-28T07:30:48;102458.91;;;3.13;90.20
14295;BME280;7231;59.370;18.016;2023-02-28T07:33:16;102472.47;;;3.31;89.57
14295;BME280;7231;59.370;18.016;2023-02-28T07:35:44;102465.09;;;3.36;88.79
14295;BME280;7231;59.370;18.016;2023-02-28T07:38:12;102469.34;;;3.45;88.30
14295;BME280;7231;59.370;18.016;2023-02-28T07:40:41;102444.09;;;3.33;87.73
14295;BME280;7231;59.370;18.016;2023-02-28T07:43:08;102448.75;;;3.37;86.70
14295;BME280;7231;59.370;18.016;2023-02-28T07:45:38;102447.69;;;3.45;86.51
14295;BME280;7231;59.370;18.016;2023-02-28T07:48:06;102460.22;;;3.61;86.60
14295;BME280;7231;59.370;18.016;2023-02-28T07:50:36;102451.63;;;3.72;85.87
14295;BME280;7231;59.370;18.016;2023-02-28T07:53:04;102445.75;;;3.84;85.33
14295;BME280;7231;59.370;18.016;2023-02-28T07:55:32;102446.56;;;4.05;85.36
14295;BME280;7231;59.370;18.016;2023-02-28T07:58:00;102445.19;;;4.20;84.19
14295;BME280;7231;59.370;18.016;2023-02-28T08:00:28;102453.94;;;4.33;84.07
14295;BME280;7231;59.370;18.016;2023-02-28T08:02:59;102449.19;;;4.61;83.64
14295;BME280;7231;59.370;18.016;2023-02-28T08:05:27;102443.41;;;4.86;83.79
14295;BME280;7231;59.370;18.016;2023-02-28T08:07:56;102447.66;;;5.19;82.73
14295;BME280;7231;59.370;18.016;2023-02-28T08:10:25;102438.81;;;5.41;81.65
14295;BME280;7231;59.370;18.016;2023-02-28T08:12:52;102434.88;;;5.58;80.58
14295;BME280;7231;59.370;18.016;2023-02-28T08:15:20;102427.16;;;5.82;80.73
14295;BME280;7231;59.370;18.016;2023-02-28T08:17:48;102427.69;;;6.13;79.25
14295;BME280;7231;59.370;18.016;2023-02-28T08:20:18;102427.94;;;6.41;78.72
14295;BME280;7231;59.370;18.016;2023-02-28T08:22:46;102427.88;;;6.53;78.07
14295;BME280;7231;59.370;18.016;2023-02-28T08:25:14;102433.78;;;6.75;77.35
14295;BME280;7231;59.370;18.016;2023-02-28T08:27:42;102429.53;;;6.64;75.39
14295;BME280;7231;59.370;18.016;2023-02-28T08:30:10;102430.09;;;6.60;74.75
14295;BME280;7231;59.370;18.016;2023-02-28T08:32:39;102431.38;;;6.54;74.04
14295;BME280;7231;59.370;18.016;2023-02-28T08:35:08;102438.31;;;6.53;74.19
14295;BME280;7231;59.370;18.016;2023-02-28T08:37:38;102436.50;;;6.52;74.56
14295;BME280;7231;59.370;18.016;2023-02-28T08:40:07;102433.97;;;6.78;74.43
14295;BME280;7231;59.370;18.016;2023-02-28T08:42:35;102431.53;;;6.93;72.68
14295;BME280;7231;59.370;18.016;2023-02-28T08:45:04;102418.88;;;6.86;72.67
14295;BME280;7231;59.370;18.016;2023-02-28T08:47:32;102429.78;;;6.80;71.66
14295;BME280;7231;59.370;18.016;2023-02-28T08:50:00;102403.88;;;6.70;71.83
14295;BME280;7231;59.370;18.016;2023-02-28T08:52:28;102418.81;;;6.73;70.65
14295;BME280;7231;59.370;18.016;2023-02-28T08:54:58;102411.44;;;6.54;69.88
14295;BME280;7231;59.370;18.016;2023-02-28T08:57:26;102427.28;;;6.32;70.80
14295;BME280;7231;59.370;18.016;2023-02-28T08:59:54;102423.13;;;6.23;70.88
14295;BME280;7231;59.370;18.016;2023-02-28T09:02:22;102424.81;;;6.22;71.80
14295;BME280;7231;59.370;18.016;2023-02-28T09:04:50;102419.84;;;6.50;71.26
14295;BME280;7231;59.370;18.016;2023-02-28T09:07:17;102402.31;;;6.86;71.93
14295;BME280;7231;59.370;18.016;2023-02-28T09:09:46;102364.25;;;7.14;71.82
14295;BME280;7231;59.370;18.016;2023-02-28T09:12:23;102407.41;;;7.62;69.63
14295;BME280;7231;59.370;18.016;2023-02-28T09:14:51;102396.84;;;7.73;69.60
14295;BME280;7231;59.370;18.016;2023-02-28T09:17:20;102394.06;;;7.98;68.81
14295;BME280;7231;59.370;18.016;2023-02-28T09:19:48;102387.84;;;8.24;67.86
14295;BME280;7231;59.370;18.016;2023-02-28T09:22:16;102391.69;;;8.16;66.70
14295;BME280;7231;59.370;18.016;2023-02-28T09:24:44;102365.09;;;8.08;66.36
14295;BME280;7231;59.370;18.016;2023-02-28T09:27:12;102384.13;;;8.21;65.42
14295;BME280;7231;59.370;18.016;2023-02-28T09:29:41;102379.28;;;8.27;65.05
14295;BME280;7231;59.370;18.016;2023-02-28T09:32:09;102378.56;;;8.42;64.63
14295;BME280;7231;59.370;18.016;2023-02-28T09:34:37;102365.13;;;8.36;63.79
14295;BME280;7231;59.370;18.016;2023-02-28T09:37:05;102371.47;;;8.55;64.16
14295;BME280;7231;59.370;18.016;2023-02-28T09:39:33;102321.69;;;8.38;63.24
14295;BME280;7231;59.370;18.016;2023-02-28T09:42:03;102328.81;;;8.41;63.72
14295;BME280;7231;59.370;18.016;2023-02-28T09:44:35;102212.38;;;7.74;63.24
14295;BME280;7231;59.370;18.016;2023-02-28T09:47:12;102361.16;;;8.43;62.44
14295;BME280;7231;59.370;18.016;2023-02-28T09:49:44;102374.41;;;8.46;61.98
14295;BME280;7231;59.370;18.016;2023-02-28T09:52:17;102339.00;;;8.23;62.73
14295;BME280;7231;59.370;18.016;2023-02-28T09:54:46;102358.28;;;8.53;63.01
14295;BME280;7231;59.370;18.016;2023-02-28T09:57:19;102366.25;;;8.69;62.10
14295;BME280;7231;59.370;18.016;2023-02-28T10:00:00;102366.31;;;8.56;61.91
14295;BME280;7231;59.370;18.016;2023-02-28T10:02:54;102371.75;;;8.74;61.22
14295;BME280;7231;59.370;18.016;2023-02-28T10:05:27;102368.13;;;8.57;61.10
14295;BME280;7231;59.370;18.016;2023-02-28T10:08:02;102291.75;;;8.05;60.52
14295;BME280;7231;59.370;18.016;2023-02-28T10:10:36;102382.53;;;8.23;60.64
14295;BME280;7231;59.370;18.016;2023-02-28T10:13:14;102379.38;;;8.00;61.13
14295;BME280;7231;59.370;18.016;2023-02-28T10:15:46;102378.53;;;8.14;61.66
14295;BME280;7231;59.370;18.016;2023-02-28T10:18:21;102386.59;;;8.45;61.74
14295;BME280;7231;59.370;18.016;2023-02-28T10:20:53;102339.44;;;8.44;61.05
14295;BME280;7231;59.370;18.016;2023-02-28T10:23:26;102389.28;;;8.90;60.66
14295;BME280;7231;59.370;18.016;2023-02-28T10:25:59;102360.56;;;9.06;60.88
14295;BME280;7231;59.370;18.016;2023-02-28T10:28:29;102306.72;;;8.95;60.50
14295;BME280;7231;59.370;18.016;2023-02-28T10:30:58;102397.66;;;9.28;59.86
14295;BME280;7231;59.370;18.016;2023-02-28T10:33:31;102398.84;;;9.19;59.86
14295;BME280;7231;59.370;18.016;2023-02-28T10:36:01;102394.50;;;9.04;59.45
14295;BME280;7231;59.370;18.016;2023-02-28T10:38:34;102384.38;;;8.81;59.48
14295;BME280;7231;59.370;18.016;2023-02-28T10:41:07;102361.38;;;8.75;59.99
14295;BME280;7231;59.370;18.016;2023-02-28T10:43:37;102389.28;;;9.04;59.66
14295;BME280;7231;59.370;18.016;2023-02-28T10:46:11;102377.00;;;8.89;59.51
14295;BME280;7231;59.370;18.016;2023-02-28T10:48:45;102390.44;;;8.95;59.27
14295;BME280;7231;59.370;18.016;2023-02-28T10:51:18;102385.81;;;8.76;59.13
14295;BME280;7231;59.370;18.016;2023-02-28T10:53:51;102389.97;;;8.72;59.50
14295;BME280;7231;59.370;18.016;2023-02-28T10:56:28;102386.09;;;8.81;59.49
14295;BME280;7231;59.370;18.016;2023-02-28T10:58:59;102392.50;;;8.86;59.35
14295;BME280;7231;59.370;18.016;2023-02-28T11:01:36;102385.94;;;8.92;58.94
14295;BME280;7231;59.370;18.016;2023-02-28T11:04:18;102390.44;;;9.09;59.14
14295;BME280;7231;59.370;18.016;2023-02-28T11:06:56;102367.69;;;9.23;58.89
14295;BME280;7231;59.370;18.016;2023-02-28T11:09:28;102378.63;;;9.62;58.78
14295;BME280;7231;59.370;18.016;2023-02-28T11:11:58;102386.78;;;9.83;58.25
14295;BME280;7231;59.370;18.016;2023-02-28T11:14:28;102376.41;;;9.84;57.88
14295;BME280;7231;59.370;18.016;2023-02-28T11:17:03;102387.91;;;10.02;57.72
14295;BME280;7231;59.370;18.016;2023-02-28T11:19:45;102341.44;;;9.84;57.59
14295;BME280;7231;59.370;18.016;2023-02-28T11:22:18;102368.44;;;10.30;57.32
14295;BME280;7231;59.370;18.016;2023-02-28T11:24:50;102368.56;;;10.49;57.53
14295;BME280;7231;59.370;18.016;2023-02-28T11:27:40;102370.75;;;10.74;56.25
14295;BME280;7231;59.370;18.016;2023-02-28T11:30:26;102375.25;;;10.77;55.35
14295;BME280;7231;59.370;18.016;2023-02-28T11:32:54;102374.88;;;10.53;55.80
14295;BME280;7231;59.370;18.016;2023-02-28T11:35:26;102358.31;;;10.54;56.28
14295;BME280;7231;59.370;18.016;2023-02-28T11:37:56;102381.28;;;10.92;55.62
14295;BME280;7231;59.370;18.016;2023-02-28T11:40:30;102344.16;;;10.50;55.15
14295;BME280;7231;59.370;18.016;2023-02-28T11:43:09;102362.66;;;10.53;54.84
14295;BME280;7231;59.370;18.016;2023-02-28T11:45:46;102371.50;;;10.71;55.23
14295;BME280;7231;59.370;18.016;2023-02-28T11:48:21;102361.78;;;10.87;54.59
14295;BME280;7231;59.370;18.016;2023-02-28T11:51:00;102378.28;;;10.84;53.85
14295;BME280;7231;59.370;18.016;2023-02-28T11:53:50;102361.03;;;10.55;53.56
14295;BME280;7231;59.370;18.016;2023-02-28T11:56:25;102353.59;;;10.14;54.12
14295;BME280;7231;59.370;18.016;2023-02-28T11:59:05;102348.00;;;10.08;54.63
14295;BME280;7231;59.370;18.016;2023-02-28T12:01:45;102342.53;;;10.03;54.54
14295;BME280;7231;59.370;18.016;2023-02-28T12:04:25;102340.53;;;9.83;54.35
14295;BME280;7231;59.370;18.016;2023-02-28T12:07:01;102309.72;;;9.63;54.79
14295;BME280;7231;59.370;18.016;2023-02-28T12:09:42;102333.75;;;9.87;54.83
14295;BME280;7231;59.370;18.016;2023-02-28T12:12:21;102336.44;;;9.88;55.13
14295;BME280;7231;59.370;18.016;2023-02-28T12:15:14;102338.03;;;10.17;54.93
14295;BME280;7231;59.370;18.016;2023-02-28T12:17:53;102339.31;;;10.41;54.67
14295;BME280;7231;59.370;18.016;2023-02-28T12:20:28;102312.50;;;10.29;54.51
14295;BME280;7231;59.370;18.016;2023-02-28T12:23:17;102340.34;;;10.61;54.46
14295;BME280;7231;59.370;18.016;2023-02-28T12:26:00;102333.06;;;10.90;53.88
14295;BME280;7231;59.370;18.016;2023-02-28T12:28:34;102307.22;;;10.97;54.53
14295;BME280;7231;59.370;18.016;2023-02-28T12:31:12;102318.16;;;11.42;53.95
14295;BME280;7231;59.370;18.016;2023-02-28T12:33:46;102320.16;;;11.65;52.78
14295;BME280;7231;59.370;18.016;2023-02-28T12:36:18;102177.50;;;10.92;52.48
14295;BME280;7231;59.370;18.016;2023-02-28T12:38:53;102317.53;;;12.02;52.10
14295;BME280;7231;59.370;18.016;2023-02-28T12:41:40;102307.22;;;12.46;51.82
14295;BME280;7231;59.370;18.016;2023-02-28T12:44:12;102289.00;;;12.92;50.67
14295;BME280;7231;59.370;18.016;2023-02-28T12:46:44;102233.53;;;12.87;50.48
14295;BME280;7231;59.370;18.016;2023-02-28T12:49:16;102273.94;;;13.31;49.83
14295;BME280;7231;59.370;18.016;2023-02-28T12:51:45;102299.31;;;13.51;49.37
14295;BME280;7231;59.370;18.016;2023-02-28T12:54:21;102287.94;;;13.09;48.77
14295;BME280;7231;59.370;18.016;2023-02-28T12:56:56;102268.78;;;12.49;48.88
14295;BME280;7231;59.370;18.016;2023-02-28T12:59:35;102320.50;;;12.29;49.10
14295;BME280;7231;59.370;18.016;2023-02-28T13:02:29;102321.75;;;11.99;49.29
14295;BME280;7231;59.370;18.016;2023-02-28T13:05:10;102325.09;;;11.95;50.32
14295;BME280;7231;59.370;18.016;2023-02-28T13:07:57;102263.19;;;11.64;50.25
14295;BME280;7231;59.370;18.016;2023-02-28T13:10:42;102320.94;;;12.00;50.28
14295;BME280;7231;59.370;18.016;2023-02-28T13:13:16;102306.41;;;12.27;50.03
14295;BME280;7231;59.370;18.016;2023-02-28T13:16:01;102306.88;;;12.38;49.42
14295;BME280;7231;59.370;18.016;2023-02-28T13:18:34;102318.16;;;12.35;49.50
14295;BME280;7231;59.370;18.016;2023-02-28T13:21:05;102318.59;;;12.25;49.31
14295;BME280;7231;59.370;18.016;2023-02-28T13:23:57;102313.25;;;12.24;48.92